X  Luk Metar data     EKYT Aalborg Airport
Temperatur
11°C Temperatur
10°C Dugpunkt
94% Fugtighed



Vind
4 M/S
10 MPT
16 KM/T
9 KNOB



280°
V
Nuværende forhold

Delvis skyet Delvis skyet
Tryk 1016.92 (hPa) - 30.03 (inHg)
Sigt 6.2 (mil) - 10 (km)
Lufthavn
Lufthavnskode EKYT

Lokation: Aalborg Airport
Afstand: 54 (km)

Metar:
EKYT 030350Z AUTO 28009KT 9999 FEW017/// 11/10 Q1017

Tid: 03-10-2022 05:50 CEST